createdAt,value
2017-04-05T00:00:31.273Z,29.5
2017-04-05T00:01:32.831Z,29.5
2017-04-05T00:02:32.008Z,29.5
2017-04-05T00:03:33.278Z,29.5
2017-04-05T00:04:31.323Z,29.5
2017-04-05T00:05:33.008Z,29.5
2017-04-05T00:06:31.565Z,29.5
2017-04-05T00:07:33.236Z,29.5
2017-04-05T00:08:33.313Z,29.5
2017-04-05T00:09:33.543Z,29.5
2017-04-05T00:10:31.679Z,29.5
2017-04-05T00:11:31.782Z,29.5
2017-04-05T00:12:31.984Z,29.5
2017-04-05T00:13:33.458Z,29.5
2017-04-05T00:14:32.027Z,29.5
2017-04-05T00:15:33.848Z,29.5
2017-04-05T00:16:32.166Z,29.5
2017-04-05T00:17:32.097Z,29.5
2017-04-05T00:18:33.813Z,29.5
2017-04-05T00:19:33.853Z,29.5
2017-04-05T00:20:33.992Z,29.5
2017-04-05T00:21:34.243Z,29.5
2017-04-05T00:22:34.223Z,29.5
2017-04-05T00:23:32.491Z,29.5
2017-04-05T00:24:34.121Z,29.5
2017-04-05T00:25:32.746Z,29.5
2017-04-05T00:26:34.314Z,29.5
2017-04-05T00:27:32.929Z,29.5
2017-04-05T00:28:33.079Z,29.5
2017-04-05T00:29:34.548Z,29.5
2017-04-05T00:30:34.693Z,29.5
2017-04-05T00:31:33.052Z,29.5
2017-04-05T00:32:34.945Z,29.5
2017-04-05T00:33:34.883Z,29.5
2017-04-05T00:34:34.881Z,29.5
2017-04-05T00:35:33.527Z,29.5
2017-04-05T00:36:33.382Z,29.5
2017-04-05T00:37:33.479Z,29.5
2017-04-05T00:38:34.054Z,29.5
2017-04-05T00:39:33.755Z,29.4
2017-04-05T00:40:35.222Z,29.5
2017-04-05T00:41:33.655Z,29.5
2017-04-05T00:42:33.643Z,29.5
2017-04-05T00:43:33.840Z,29.5
2017-04-05T00:44:33.862Z,29.5
2017-04-05T00:45:35.482Z,29.5
2017-04-05T00:46:35.565Z,29.4
2017-04-05T00:47:34.070Z,29.5
2017-04-05T00:48:35.551Z,29.5
2017-04-05T00:49:35.613Z,29.4
2017-04-05T00:50:35.767Z,29.5
2017-04-05T00:51:35.777Z,29.5
2017-04-05T00:52:34.278Z,29.5
2017-04-05T00:53:35.945Z,29.5
2017-04-05T00:54:34.316Z,29.5
2017-04-05T00:55:36.071Z,29.5
2017-04-05T00:56:36.094Z,29.5
2017-04-05T00:57:36.048Z,29.5
2017-04-05T00:58:36.071Z,29.5
2017-04-05T00:59:34.498Z,29.5
2017-04-05T01:00:36.239Z,29.5
2017-04-05T01:01:34.599Z,29.5
2017-04-05T01:02:36.215Z,29.5
2017-04-05T01:03:34.622Z,29.5
2017-04-05T01:04:34.834Z,29.5
2017-04-05T01:05:34.700Z,29.5
2017-04-05T01:06:34.923Z,29.5
2017-04-05T01:07:35.014Z,29.5
2017-04-05T01:08:34.900Z,29.5
2017-04-05T01:09:36.523Z,29.5
2017-04-05T01:10:36.706Z,29.5
2017-04-05T01:11:35.199Z,29.5
2017-04-05T01:12:36.755Z,29.5
2017-04-05T01:13:36.800Z,29.5
2017-04-05T01:14:36.871Z,29.5
2017-04-05T01:15:36.918Z,29.5
2017-04-05T01:16:35.489Z,29.5
2017-04-05T01:17:37.195Z,29.5
2017-04-05T01:18:35.677Z,29.5
2017-04-05T01:19:35.563Z,29.5
2017-04-05T01:20:35.551Z,29.5
2017-04-05T01:21:37.181Z,29.5
2017-04-05T01:22:35.759Z,29.5
2017-04-05T01:23:37.370Z,29.5
2017-04-05T01:24:35.798Z,29.5
2017-04-05T01:25:37.412Z,29.5
2017-04-05T01:26:37.437Z,29.5
2017-04-05T01:27:37.339Z,29.5
2017-04-05T01:28:35.751Z,29.5
2017-04-05T01:29:37.471Z,29.5
2017-04-05T01:30:35.886Z,29.4
2017-04-05T01:31:35.905Z,29.4
2017-04-05T01:32:35.997Z,29.4
2017-04-05T01:33:36.075Z,29.5
2017-04-05T01:34:36.087Z,29.4
2017-04-05T01:35:37.886Z,29.4
2017-04-05T01:36:37.866Z,29.4
2017-04-05T01:37:37.880Z,29.4
2017-04-05T01:38:36.317Z,29.4
2017-04-05T01:39:37.926Z,29.4
2017-04-05T01:40:36.496Z,29.4
2017-04-05T01:41:36.577Z,29.4
2017-04-05T01:42:36.525Z,29.4
2017-04-05T01:43:36.620Z,29.4
2017-04-05T01:44:38.415Z,29.4
2017-04-05T01:45:36.904Z,29.4
2017-04-05T01:46:36.971Z,29.4
2017-04-05T01:47:38.513Z,29.4
2017-04-05T01:48:36.977Z,29.4
2017-04-05T01:49:36.993Z,29.4
2017-04-05T01:50:38.804Z,29.4
2017-04-05T01:51:37.313Z,29.4
2017-04-05T01:52:37.407Z,29.4
2017-04-05T01:53:38.939Z,29.4
2017-04-05T01:54:37.438Z,29.4
2017-04-05T01:55:39.127Z,29.4
2017-04-05T01:56:39.201Z,29.4
2017-04-05T01:57:37.542Z,29.4
2017-04-05T01:58:39.214Z,29.4
2017-04-05T01:59:39.452Z,29.4
2017-04-05T02:00:39.430Z,29.4
2017-04-05T02:01:37.915Z,29.4
2017-04-05T02:02:37.993Z,29.4
2017-04-05T02:03:39.578Z,29.4
2017-04-05T02:04:37.921Z,29.4
2017-04-05T02:05:39.732Z,29.4
2017-04-05T02:06:38.160Z,29.4
2017-04-05T02:07:38.176Z,29.4
2017-04-05T02:08:39.682Z,29.4
2017-04-05T02:09:38.085Z,29.4
2017-04-05T02:10:39.790Z,29.4
2017-04-05T02:11:39.919Z,29.4
2017-04-05T02:12:38.406Z,29.3
2017-04-05T02:13:38.402Z,29.4
2017-04-05T02:14:40.053Z,29.4
2017-04-05T02:15:38.406Z,29.3
2017-04-05T02:16:38.631Z,29.4
2017-04-05T02:17:40.286Z,29.4
2017-04-05T02:18:40.235Z,29.4
2017-04-05T02:19:40.421Z,29.4
2017-04-05T02:20:38.756Z,29.4
2017-04-05T02:21:38.827Z,29.3
2017-04-05T02:22:40.462Z,29.4
2017-04-05T02:23:40.566Z,29.4
2017-04-05T02:24:38.905Z,29.4
2017-04-05T02:25:38.922Z,29.4
2017-04-05T02:26:40.592Z,29.4
2017-04-05T02:27:40.617Z,29.4
2017-04-05T02:28:39.163Z,29.4
2017-04-05T02:29:40.752Z,29.4
2017-04-05T02:30:40.801Z,29.3
2017-04-05T02:31:40.751Z,29.4
2017-04-05T02:32:39.209Z,29.3
2017-04-05T02:33:39.264Z,29.3
2017-04-05T02:34:39.329Z,29.4
2017-04-05T02:35:39.329Z,29.3
2017-04-05T02:36:41.189Z,29.3
2017-04-05T02:37:41.089Z,29.3
2017-04-05T02:38:39.588Z,29.3
2017-04-05T02:39:39.786Z,29.3
2017-04-05T02:40:39.666Z,29.3
2017-04-05T02:41:39.656Z,29.3
2017-04-05T02:42:41.529Z,29.3
2017-04-05T02:43:39.920Z,29.3
2017-04-05T02:44:41.390Z,29.3
2017-04-05T02:45:41.533Z,29.3
2017-04-05T02:46:40.016Z,29.3
2017-04-05T02:47:41.572Z,29.3
2017-04-05T02:48:40.004Z,29.3
2017-04-05T02:49:40.158Z,29.3
2017-04-05T02:50:40.183Z,29.3
2017-04-05T02:51:40.047Z,29.3
2017-04-05T02:52:40.138Z,29.3
2017-04-05T02:53:40.391Z,29.3
2017-04-05T02:54:41.782Z,29.3
2017-04-05T02:55:41.993Z,29.3
2017-04-05T02:56:41.891Z,29.3
2017-04-05T02:57:42.020Z,29.3
2017-04-05T02:58:40.399Z,29.3
2017-04-05T02:59:42.006Z,29.3
2017-04-05T03:00:40.429Z,29.3
2017-04-05T03:01:42.162Z,29.3
2017-04-05T03:02:40.762Z,29.3
2017-04-05T03:03:40.872Z,29.3
2017-04-05T03:04:40.906Z,29.3
2017-04-05T03:05:42.420Z,29.3
2017-04-05T03:06:42.547Z,29.3
2017-04-05T03:07:40.807Z,29.3
2017-04-05T03:08:40.833Z,29.3
2017-04-05T03:09:41.001Z,29.3
2017-04-05T03:10:42.569Z,29.3
2017-04-05T03:11:42.636Z,29.3
2017-04-05T03:12:42.695Z,29.3
2017-04-05T03:13:41.304Z,29.2
2017-04-05T03:14:41.197Z,29.3
2017-04-05T03:15:41.203Z,29.3
2017-04-05T03:16:41.232Z,29.3
2017-04-05T03:17:41.412Z,29.3
2017-04-05T03:18:41.454Z,29.3
2017-04-05T03:19:42.962Z,29.3
2017-04-05T03:20:43.071Z,29.3
2017-04-05T03:21:43.024Z,29.3
2017-04-05T03:22:43.190Z,29.2
2017-04-05T03:23:43.192Z,29.3
2017-04-05T03:24:41.511Z,29.3
2017-04-05T03:25:43.172Z,29.3
2017-04-05T03:26:41.620Z,29.3
2017-04-05T03:27:43.332Z,29.3
2017-04-05T03:28:43.402Z,29.3
2017-04-05T03:29:41.945Z,29.3
2017-04-05T03:30:41.839Z,29.3
2017-04-05T03:31:42.016Z,29.3
2017-04-05T03:32:43.596Z,29.3
2017-04-05T03:33:42.024Z,29.2
2017-04-05T03:34:43.746Z,29.3
2017-04-05T03:35:42.307Z,29.2
2017-04-05T03:36:42.212Z,29.3
2017-04-05T03:37:43.921Z,29.3
2017-04-05T03:38:44.016Z,29.3
2017-04-05T03:39:42.364Z,29.3
2017-04-05T03:40:42.453Z,29.3
2017-04-05T03:41:42.693Z,29.3
2017-04-05T03:42:42.734Z,29.3
2017-04-05T03:43:42.570Z,29.3
2017-04-05T03:44:44.272Z,29.3
2017-04-05T03:45:44.456Z,29.3
2017-04-05T03:46:44.422Z,29.3
2017-04-05T03:47:42.855Z,29.2
2017-04-05T03:48:44.580Z,29.3
2017-04-05T03:49:43.027Z,29.3
2017-04-05T03:50:43.061Z,29.3
2017-04-05T03:51:43.100Z,29.3
2017-04-05T03:52:44.796Z,29.3
2017-04-05T03:53:44.974Z,29.3
2017-04-05T03:54:44.899Z,29.2
2017-04-05T03:55:44.932Z,29.3
2017-04-05T03:56:45.000Z,29.3
2017-04-05T03:57:45.038Z,29.2
2017-04-05T03:58:43.616Z,29.2
2017-04-05T03:59:45.205Z,29.2
2017-04-05T04:00:43.725Z,29.3
2017-04-05T04:01:45.304Z,29.3
2017-04-05T04:02:45.274Z,29.2
2017-04-05T04:03:43.691Z,29.2
2017-04-05T04:04:45.507Z,29.2
2017-04-05T04:05:43.848Z,29.2
2017-04-05T04:06:43.892Z,29.2
2017-04-05T04:07:45.520Z,29.2
2017-04-05T04:08:45.699Z,29.2
2017-04-05T04:09:44.202Z,29.2
2017-04-05T04:10:45.829Z,29.2
2017-04-05T04:11:44.363Z,29.2
2017-04-05T04:12:45.830Z,29.2
2017-04-05T04:13:44.377Z,29.2
2017-04-05T04:14:46.024Z,29.2
2017-04-05T04:15:46.030Z,29.2
2017-04-05T04:16:44.438Z,29.2
2017-04-05T04:17:44.641Z,29.2
2017-04-05T04:18:44.602Z,29.2
2017-04-05T04:19:46.237Z,29.2
2017-04-05T04:20:46.382Z,29.2
2017-04-05T04:21:44.862Z,29.2
2017-04-05T04:22:44.794Z,29.2
2017-04-05T04:23:46.517Z,29.2
2017-04-05T04:24:45.082Z,29.2
2017-04-05T04:25:46.567Z,29.2
2017-04-05T04:26:45.150Z,29.2
2017-04-05T04:27:45.250Z,29.2
2017-04-05T04:28:46.701Z,29.2
2017-04-05T04:29:45.285Z,29.2
2017-04-05T04:30:45.129Z,29.2
2017-04-05T04:31:45.336Z,29.2
2017-04-05T04:32:45.414Z,29.2
2017-04-05T04:33:45.497Z,29.2
2017-04-05T04:34:45.565Z,29.1
2017-04-05T04:35:45.666Z,29.1
2017-04-05T04:36:47.113Z,29.1
2017-04-05T04:37:47.134Z,29.1
2017-04-05T04:41:06.869Z,29
2017-04-05T04:42:06.905Z,29
2017-04-05T04:43:06.951Z,29
2017-04-05T04:44:08.616Z,29
2017-04-05T04:45:08.705Z,29
2017-04-05T04:46:08.725Z,29.1
2017-04-05T04:47:07.206Z,29.1
2017-04-05T04:48:07.319Z,29.1
2017-04-05T04:49:08.969Z,29.1
2017-04-05T04:50:09.060Z,29.2
2017-04-05T04:51:09.070Z,29.2
2017-04-05T04:52:07.528Z,29.2
2017-04-05T04:53:09.177Z,29.2
2017-04-05T04:54:07.479Z,29.2
2017-04-05T04:55:07.666Z,29.2
2017-04-05T04:56:09.150Z,29.2
2017-04-05T04:57:09.336Z,29.2
2017-04-05T04:58:09.345Z,29.2
2017-04-05T04:59:07.743Z,29.2
2017-04-05T05:00:07.855Z,29.1
2017-04-05T05:01:09.396Z,28.8
2017-04-05T05:02:07.915Z,28.6
2017-04-05T05:03:07.849Z,28.4
2017-04-05T05:04:09.472Z,28.1
2017-04-05T05:05:07.925Z,28
2017-04-05T05:06:10.398Z,27.8
2017-04-05T05:07:08.022Z,27.6
2017-04-05T05:08:08.105Z,27.5
2017-04-05T05:09:08.092Z,27.3
2017-04-05T05:10:08.254Z,27.2
2017-04-05T05:11:10.481Z,27
2017-04-05T05:12:10.143Z,26.9
2017-04-05T05:13:09.907Z,26.8
2017-04-05T05:14:08.544Z,26.7
2017-04-05T05:15:10.201Z,26.7
2017-04-05T05:16:10.808Z,26.9
2017-04-05T05:17:08.833Z,27
2017-04-05T05:18:10.609Z,27.1
2017-04-05T05:19:10.395Z,27.2
2017-04-05T05:20:08.788Z,27.4
2017-04-05T05:21:10.408Z,27.5
2017-04-05T05:22:10.446Z,27.6
2017-04-05T05:23:09.025Z,27.7
2017-04-05T05:24:09.326Z,27.8
2017-04-05T05:25:10.597Z,27.9
2017-04-05T05:26:09.114Z,28
2017-04-05T05:27:10.811Z,28.1
2017-04-05T05:28:10.832Z,28.2
2017-04-05T05:29:09.765Z,28.3
2017-04-05T05:30:11.133Z,28.3
2017-04-05T05:31:11.003Z,28.4
2017-04-05T05:32:09.377Z,28.5
2017-04-05T05:33:10.962Z,28.6
2017-04-05T05:34:10.932Z,28.7
2017-04-05T05:35:11.099Z,28.7
2017-04-05T05:36:12.038Z,28.8
2017-04-05T05:37:09.521Z,28.8
2017-04-05T05:38:10.142Z,28.9
2017-04-05T05:39:09.671Z,28.9
2017-04-05T05:40:09.691Z,29
2017-04-05T05:41:11.919Z,29
2017-04-05T05:42:09.970Z,29.1
2017-04-05T05:43:11.365Z,29.1
2017-04-05T05:44:09.868Z,29.2
2017-04-05T05:45:11.536Z,29.2
2017-04-05T05:46:11.483Z,29.3
2017-04-05T05:47:11.618Z,29.3
2017-04-05T05:48:11.780Z,29.4
2017-04-05T05:49:10.137Z,29.4
2017-04-05T05:50:11.716Z,29.4
2017-04-05T05:51:10.245Z,29.4
2017-04-05T05:52:10.229Z,29.5
2017-04-05T05:53:10.284Z,29.5
2017-04-05T05:54:12.562Z,29.5
2017-04-05T05:55:11.217Z,29.6
2017-04-05T05:56:12.053Z,29.6
2017-04-05T05:57:10.418Z,29.6
2017-04-05T05:58:10.454Z,29.7
2017-04-05T05:59:12.048Z,29.7
2017-04-05T06:00:14.252Z,29.7
2017-04-05T06:01:11.241Z,29.7
2017-04-05T06:02:12.349Z,29.8
2017-04-05T06:03:12.341Z,29.8
2017-04-05T06:04:13.267Z,29.8
2017-04-05T06:05:12.449Z,29.8
2017-04-05T06:06:12.819Z,29.9
2017-04-05T06:07:10.953Z,29.9
2017-04-05T06:08:11.266Z,29.9
2017-04-05T06:09:12.769Z,29.9
2017-04-05T06:10:12.912Z,29.9
2017-04-05T06:11:14.232Z,30
2017-04-05T06:12:11.514Z,30
2017-04-05T06:13:12.884Z,30
2017-04-05T06:14:11.363Z,30
2017-04-05T06:15:11.989Z,30.1
2017-04-05T06:16:13.159Z,30.1
2017-04-05T06:17:11.662Z,30.1
2017-04-05T06:18:13.490Z,30.1
2017-04-05T06:19:13.292Z,30.2
2017-04-05T06:20:11.811Z,30.2
2017-04-05T06:21:11.849Z,30.2
2017-04-05T06:22:12.414Z,30.3
2017-04-05T06:23:13.577Z,30.3
2017-04-05T06:24:15.432Z,30.3
2017-04-05T06:25:12.151Z,30.3
2017-04-05T06:26:12.185Z,30.4
2017-04-05T06:27:13.649Z,30.4
2017-04-05T06:28:14.384Z,30.4
2017-04-05T06:29:12.106Z,30.4
2017-04-05T06:30:14.717Z,30.5
2017-04-05T06:31:12.251Z,30.5
2017-04-05T06:32:12.518Z,30.5
2017-04-05T06:33:12.441Z,30.6
2017-04-05T06:34:14.622Z,30.6
2017-04-05T06:35:14.166Z,30.6
2017-04-05T06:36:12.705Z,30.6
2017-04-05T06:37:14.054Z,30.6
2017-04-05T06:38:14.116Z,30.6
2017-04-05T06:39:14.133Z,30.6
2017-04-05T06:40:12.691Z,30.6
2017-04-05T06:41:14.312Z,30.6
2017-04-05T06:42:12.879Z,30.6
2017-04-05T06:43:15.994Z,30.7
2017-04-05T06:44:15.125Z,30.7
2017-04-05T06:45:15.150Z,30.7
2017-04-05T06:46:16.521Z,30.7
2017-04-05T06:47:12.936Z,30.6
2017-04-05T06:48:14.671Z,30.7
2017-04-05T06:49:14.678Z,30.7
2017-04-05T06:50:13.152Z,30.7
2017-04-05T06:51:14.775Z,30.7
2017-04-05T06:52:15.401Z,30.8
2017-04-05T06:53:16.914Z,30.8
2017-04-05T06:54:15.674Z,30.8
2017-04-05T06:55:15.431Z,30.9
2017-04-05T06:56:14.083Z,30.9
2017-04-05T06:57:14.808Z,31
2017-04-05T06:58:13.443Z,31
2017-04-05T06:59:15.726Z,31.1
2017-04-05T07:00:15.157Z,31.1
2017-04-05T07:01:17.486Z,31.2
2017-04-05T07:02:14.352Z,31.2
2017-04-05T07:03:15.265Z,31.3
2017-04-05T07:04:15.891Z,31.4
2017-04-05T07:05:14.456Z,31.4
2017-04-05T07:06:15.255Z,31.5
2017-04-05T07:07:15.438Z,31.5
2017-04-05T07:08:15.498Z,31.5
2017-04-05T07:09:14.736Z,31.5
2017-04-05T07:10:15.672Z,31.5
2017-04-05T07:11:15.808Z,31.5
2017-04-05T07:12:14.073Z,31.5
2017-04-05T07:13:15.810Z,31.5
2017-04-05T07:14:17.296Z,31.5
2017-04-05T07:15:16.510Z,31.5
2017-04-05T07:16:16.563Z,31.5
2017-04-05T07:17:16.144Z,31.4
2017-04-05T07:18:14.468Z,31.3
2017-04-05T07:19:14.451Z,31.1
2017-04-05T07:20:14.538Z,31
2017-04-05T07:21:15.109Z,30.8
2017-04-05T07:22:15.344Z,30.7
2017-04-05T07:23:16.531Z,30.5
2017-04-05T07:24:15.343Z,30.4
2017-04-05T07:25:16.768Z,30.3
2017-04-05T07:26:15.512Z,30.2
2017-04-05T07:27:15.706Z,30.1
2017-04-05T07:28:16.784Z,30
2017-04-05T07:29:15.846Z,30
2017-04-05T07:30:16.712Z,29.9
2017-04-05T07:31:17.347Z,29.8
2017-04-05T07:32:15.141Z,29.8
2017-04-05T07:33:15.384Z,29.7
2017-04-05T07:34:17.016Z,29.6
2017-04-05T07:35:16.323Z,29.6
2017-04-05T07:36:15.949Z,29.5
2017-04-05T07:37:15.435Z,29.6
2017-04-05T07:38:18.267Z,29.6
2017-04-05T07:39:17.225Z,29.6
2017-04-05T07:40:15.506Z,29.6
2017-04-05T07:41:15.818Z,29.6
2017-04-05T07:42:17.983Z,29.6
2017-04-05T07:43:18.077Z,29.5
2017-04-05T07:44:15.968Z,29.6
2017-04-05T07:45:17.587Z,29.6
2017-04-05T07:46:17.609Z,29.6
2017-04-05T07:47:21.104Z,29.6
2017-04-05T07:48:18.413Z,29.6
2017-04-05T07:49:19.000Z,29.6
2017-04-05T07:50:17.729Z,29.5
2017-04-05T07:51:18.552Z,29.6
2017-04-05T07:52:20.829Z,29.5
2017-04-05T07:53:18.316Z,29.5
2017-04-05T07:54:16.365Z,29.5
2017-04-05T07:55:16.940Z,29.5
2017-04-05T07:56:16.369Z,29.5
2017-04-05T07:57:17.022Z,29.5
2017-04-05T07:58:18.284Z,29.4
2017-04-05T07:59:22.106Z,29.4
2017-04-05T08:00:18.622Z,29.4
2017-04-05T08:01:16.589Z,29.5
2017-04-05T08:02:17.274Z,29.5
2017-04-05T08:03:29.048Z,29.6
2017-04-05T08:04:20.182Z,29.7
2017-04-05T08:05:18.787Z,29.8
2017-04-05T08:06:23.287Z,29.9
2017-04-05T08:07:16.693Z,30
2017-04-05T08:08:17.411Z,30
2017-04-05T08:09:16.927Z,30.1
2017-04-05T08:10:18.623Z,30.1
2017-04-05T08:11:17.054Z,30.2
2017-04-05T08:12:17.016Z,30.2
2017-04-05T08:13:18.115Z,30.3
2017-04-05T08:14:18.908Z,30.4
2017-04-05T08:15:20.044Z,30.4
2017-04-05T08:16:17.313Z,30.4
2017-04-05T08:17:18.385Z,30.4
2017-04-05T08:18:17.304Z,30.4
2017-04-05T08:19:17.321Z,30.4
2017-04-05T08:20:19.075Z,30.4
2017-04-05T08:21:17.929Z,30.4
2017-04-05T08:22:19.478Z,30.5
2017-04-05T08:23:19.293Z,30.5
2017-04-05T08:24:18.368Z,30.6
2017-04-05T08:25:18.447Z,30.6
2017-04-05T08:26:17.806Z,30.8
2017-04-05T08:27:17.863Z,30.9
2017-04-05T08:28:18.622Z,30.9
2017-04-05T08:29:20.719Z,30.9
2017-04-05T08:30:20.260Z,30.9
2017-04-05T08:31:18.657Z,31
2017-04-05T08:32:18.068Z,31.1
2017-04-05T08:33:19.820Z,31.1
2017-04-05T08:34:20.001Z,31
2017-04-05T08:35:21.003Z,31
2017-04-05T08:36:19.822Z,31
2017-04-05T08:37:24.205Z,31.1
2017-04-05T08:38:19.011Z,31.2
2017-04-05T08:39:22.098Z,31.2
2017-04-05T08:40:21.234Z,31.3
2017-04-05T08:41:19.158Z,31.2
2017-04-05T08:42:18.894Z,31.2
2017-04-05T08:43:20.048Z,31
2017-04-05T08:44:20.011Z,30.9
2017-04-05T08:45:19.152Z,30.8
2017-04-05T08:46:21.878Z,30.7
2017-04-05T08:47:18.737Z,30.6
2017-04-05T08:48:19.287Z,30.5
2017-04-05T08:49:22.698Z,30.3
2017-04-05T08:50:27.107Z,30.2
2017-04-05T08:51:24.758Z,30.1
2017-04-05T08:52:18.975Z,30
2017-04-05T08:53:19.575Z,29.9
2017-04-05T08:54:20.027Z,29.9
2017-04-05T08:55:21.651Z,29.9
2017-04-05T08:56:22.116Z,29.8
2017-04-05T08:57:20.860Z,29.7
2017-04-05T08:58:20.795Z,29.7
2017-04-05T08:59:19.245Z,29.6
2017-04-05T09:00:20.916Z,29.6
2017-04-05T09:01:20.939Z,29.5
2017-04-05T09:02:19.369Z,29.5
2017-04-05T09:03:21.764Z,29.5
2017-04-05T09:04:22.405Z,29.4
2017-04-05T09:05:19.608Z,29.4
2017-04-05T09:06:21.932Z,29.3
2017-04-05T09:07:22.080Z,29.3
2017-04-05T09:08:21.639Z,29.3
2017-04-05T09:09:22.070Z,29.3
2017-04-05T09:10:22.338Z,29.3
2017-04-05T09:11:19.927Z,29.3
2017-04-05T09:12:20.129Z,29.3
2017-04-05T09:13:22.387Z,29.3
2017-04-05T09:14:22.569Z,29.3
2017-04-05T09:15:22.240Z,29.3
2017-04-05T09:16:21.976Z,29.3
2017-04-05T09:17:21.799Z,29.4
2017-04-05T09:18:22.571Z,29.4
2017-04-05T09:19:23.040Z,29.4
2017-04-05T09:20:23.051Z,29.3
2017-04-05T09:21:22.358Z,29.3
2017-04-05T09:22:24.086Z,29.3
2017-04-05T09:23:20.734Z,29.2
2017-04-05T09:24:20.828Z,29.2
2017-04-05T09:25:22.005Z,29.2
2017-04-05T09:26:22.455Z,29.2
2017-04-05T09:27:22.036Z,29.2
2017-04-05T09:28:20.991Z,29.2
2017-04-05T09:29:22.546Z,29.2
2017-04-05T09:30:23.739Z,29.1
2017-04-05T09:31:23.881Z,29.1
2017-04-05T09:32:23.305Z,29.1
2017-04-05T09:33:23.499Z,29.1
2017-04-05T09:34:23.543Z,29.1
2017-04-05T09:35:21.127Z,29.1
2017-04-05T09:36:21.262Z,29.1
2017-04-05T09:37:22.916Z,29.1
2017-04-05T09:38:21.993Z,29.1
2017-04-05T09:39:24.723Z,29.1
2017-04-05T09:40:23.246Z,29.1
2017-04-05T09:41:22.750Z,29.1
2017-04-05T09:42:21.310Z,29.1
2017-04-05T09:43:22.979Z,29.1
2017-04-05T09:44:24.049Z,29.2
2017-04-05T09:45:22.232Z,29.2
2017-04-05T09:46:23.950Z,29.2
2017-04-05T09:47:22.124Z,29.3
2017-04-05T09:48:23.971Z,29.3
2017-04-05T09:49:22.350Z,29.3
2017-04-05T09:50:25.718Z,29.3
2017-04-05T09:51:23.045Z,29.3
2017-04-05T09:52:24.139Z,29.4
2017-04-05T09:53:25.540Z,29.5
2017-04-05T09:54:23.958Z,29.5
2017-04-05T09:55:23.639Z,29.5
2017-04-05T09:56:22.037Z,29.6
2017-04-05T09:57:27.448Z,29.6
2017-04-05T09:58:25.086Z,29.6
2017-04-05T09:59:24.624Z,29.6
2017-04-05T10:00:23.732Z,29.7
2017-04-05T10:01:22.603Z,29.7
2017-04-05T10:02:23.663Z,29.7
2017-04-05T10:03:23.088Z,29.8
2017-04-05T10:04:24.547Z,29.8
2017-04-05T10:05:26.453Z,29.9
2017-04-05T10:06:23.329Z,29.9
2017-04-05T10:07:22.484Z,29.9
2017-04-05T10:08:25.539Z,29.9
2017-04-05T10:09:22.838Z,29.9
2017-04-05T10:10:24.532Z,29.9
2017-04-05T10:11:24.563Z,29.9
2017-04-05T10:12:24.502Z,29.9
2017-04-05T10:13:24.134Z,29.9
2017-04-05T10:14:22.939Z,29.9
2017-04-05T10:15:24.642Z,29.9
2017-04-05T10:16:24.574Z,30
2017-04-05T10:17:23.405Z,30
2017-04-05T10:18:23.104Z,30
2017-04-05T10:19:24.857Z,30.1
2017-04-05T10:20:25.037Z,30.1
2017-04-05T10:21:25.747Z,30.1
2017-04-05T10:22:23.948Z,30.1
2017-04-05T10:23:25.850Z,30.1
2017-04-05T10:24:24.930Z,30.2
2017-04-05T10:25:25.012Z,30.2
2017-04-05T10:26:25.910Z,30.2
2017-04-05T10:27:25.324Z,30.2
2017-04-05T10:28:25.333Z,30.2
2017-04-05T10:29:25.317Z,30.1
2017-04-05T10:30:26.156Z,30.2
2017-04-05T10:31:24.918Z,30.2
2017-04-05T10:32:25.662Z,30.2
2017-04-05T10:33:25.605Z,30.2
2017-04-05T10:34:26.456Z,30.1
2017-04-05T10:35:29.248Z,30.1
2017-04-05T10:36:24.099Z,30.1
2017-04-05T10:37:25.323Z,30.1
2017-04-05T10:38:25.707Z,30.1
2017-04-05T10:39:24.971Z,30.1
2017-04-05T10:40:25.851Z,30.1
2017-04-05T10:41:24.496Z,30.1
2017-04-05T10:42:26.014Z,30
2017-04-05T10:43:25.917Z,30.1
2017-04-05T10:44:26.072Z,30.1
2017-04-05T10:45:25.131Z,30.1
2017-04-05T10:46:25.124Z,30.1
2017-04-05T10:47:24.530Z,30
2017-04-05T10:48:26.148Z,30
2017-04-05T10:49:26.184Z,30.1
2017-04-05T10:50:27.414Z,30.1
2017-04-05T10:51:24.805Z,30.1
2017-04-05T10:52:25.497Z,30.1
2017-04-05T10:53:27.440Z,30.2
2017-04-05T10:54:26.377Z,30.2
2017-04-05T10:55:26.716Z,30.4
2017-04-05T10:56:26.628Z,30.4
2017-04-05T10:57:25.777Z,30.5
2017-04-05T10:58:25.145Z,30.5
2017-04-05T10:59:26.341Z,30.5
2017-04-05T11:00:25.118Z,30.6
2017-04-05T11:01:25.448Z,30.6
2017-04-05T11:02:25.307Z,30.6
2017-04-05T11:03:25.318Z,30.6
2017-04-05T11:04:25.366Z,30.5
2017-04-05T11:05:25.258Z,30.4
2017-04-05T11:06:28.962Z,30.5
2017-04-05T11:07:28.206Z,30.5
2017-04-05T11:08:27.751Z,30.6
2017-04-05T11:09:27.260Z,30.6
2017-04-05T11:10:25.839Z,30.6
2017-04-05T11:11:28.038Z,30.6
2017-04-05T11:12:28.049Z,30.6
2017-04-05T11:13:27.464Z,30.6
2017-04-05T11:14:25.969Z,30.5
2017-04-05T11:15:27.596Z,30.4
2017-04-05T11:16:27.522Z,30.4
2017-04-05T11:17:27.615Z,30.4
2017-04-05T11:18:26.578Z,30.4
2017-04-05T11:19:26.620Z,30.4
2017-04-05T11:20:26.173Z,30.5
2017-04-05T11:21:29.085Z,30.5
2017-04-05T11:22:30.174Z,30.6
2017-04-05T11:23:27.553Z,30.6
2017-04-05T11:24:28.143Z,30.6
2017-04-05T11:25:28.140Z,30.6
2017-04-05T11:26:28.152Z,30.6
2017-04-05T11:27:27.672Z,30.6
2017-04-05T11:28:28.426Z,30.6
2017-04-05T11:29:26.862Z,30.6
2017-04-05T11:30:28.151Z,30.7
2017-04-05T11:31:28.893Z,30.8
2017-04-05T11:32:27.390Z,30.8
2017-04-05T11:33:28.527Z,30.7
2017-04-05T11:34:27.239Z,30.7
2017-04-05T11:35:28.656Z,30.7
2017-04-05T11:36:27.088Z,30.7
2017-04-05T11:37:28.744Z,30.7
2017-04-05T11:38:28.833Z,30.7
2017-04-05T11:39:27.381Z,30.7
2017-04-05T11:40:27.133Z,30.8
2017-04-05T11:41:27.302Z,30.8
2017-04-05T11:42:30.499Z,30.8
2017-04-05T11:43:28.885Z,30.8
2017-04-05T11:44:27.400Z,30.9
2017-04-05T11:45:28.120Z,30.9
2017-04-05T11:46:28.213Z,31
2017-04-05T11:47:29.164Z,31
2017-04-05T11:48:27.726Z,31
2017-04-05T11:49:27.737Z,31
2017-04-05T11:50:28.969Z,30.9
2017-04-05T11:51:27.789Z,31
2017-04-05T11:52:27.613Z,31
2017-04-05T11:53:27.927Z,31
2017-04-05T11:54:29.335Z,31
2017-04-05T11:55:29.342Z,31
2017-04-05T11:56:28.010Z,31.1
2017-04-05T11:57:29.379Z,31.1
2017-04-05T11:58:31.551Z,31.1
2017-04-05T11:59:28.133Z,31.1
2017-04-05T12:00:29.466Z,31.1
2017-04-05T12:01:28.456Z,31
2017-04-05T12:02:29.846Z,31.1
2017-04-05T12:03:28.959Z,31.1
2017-04-05T12:04:28.522Z,31
2017-04-05T12:05:32.366Z,31
2017-04-05T12:06:29.221Z,30.9
2017-04-05T12:07:30.807Z,30.9
2017-04-05T12:08:30.287Z,30.8
2017-04-05T12:09:32.361Z,30.8
2017-04-05T12:10:30.363Z,30.8
2017-04-05T12:11:30.332Z,30.8
2017-04-05T12:12:30.471Z,30.9
2017-04-05T12:13:30.004Z,30.9
2017-04-05T12:14:29.028Z,30.8
2017-04-05T12:15:31.175Z,30.8
2017-04-05T12:16:28.980Z,30.8
2017-04-05T12:17:30.707Z,30.7
2017-04-05T12:18:30.669Z,30.7
2017-04-05T12:19:30.763Z,30.6
2017-04-05T12:20:31.696Z,30.7
2017-04-05T12:21:32.604Z,30.6
2017-04-05T12:22:29.859Z,30.5
2017-04-05T12:23:30.465Z,30.5
2017-04-05T12:24:31.947Z,30.5
2017-04-05T12:25:30.993Z,30.4
2017-04-05T12:26:29.366Z,30.4
2017-04-05T12:27:29.540Z,30.4
2017-04-05T12:28:29.592Z,30.3
2017-04-05T12:29:31.724Z,30.3
2017-04-05T12:30:31.220Z,30.3
2017-04-05T12:31:31.178Z,30.3
2017-04-05T12:32:31.754Z,30.3
2017-04-05T12:33:29.912Z,30.3
2017-04-05T12:34:30.909Z,30.3
2017-04-05T12:35:32.226Z,30.3
2017-04-05T12:36:29.993Z,30.3
2017-04-05T12:37:30.110Z,30.3
2017-04-05T12:38:32.531Z,30.2
2017-04-05T12:39:31.942Z,30.2
2017-04-05T12:40:33.774Z,30.2
2017-04-05T12:41:30.112Z,30.3
2017-04-05T12:42:31.950Z,30.4
2017-04-05T12:45:32.103Z,30.5
2017-04-05T12:46:30.468Z,30.5
2017-04-05T12:47:30.505Z,30.5
2017-04-05T12:48:32.306Z,30.5
2017-04-05T12:49:32.218Z,30.5
2017-04-05T12:50:33.663Z,30.5
2017-04-05T12:51:30.879Z,30.6
2017-04-05T12:52:32.542Z,30.6
2017-04-05T12:53:32.520Z,30.6
2017-04-05T12:54:32.174Z,30.7
2017-04-05T12:55:30.996Z,30.7
2017-04-05T12:56:33.190Z,30.6
2017-04-05T12:57:32.687Z,30.6
2017-04-05T12:58:32.530Z,30.6
2017-04-05T12:59:31.328Z,30.5
2017-04-05T13:00:33.526Z,30.5
2017-04-05T13:01:31.519Z,30.4
2017-04-05T13:02:31.462Z,30.4
2017-04-05T13:03:32.971Z,30.3
2017-04-05T13:04:31.480Z,30.3
2017-04-05T13:05:33.090Z,30.3
2017-04-05T13:06:33.129Z,30.2
2017-04-05T13:07:33.032Z,30.2
2017-04-05T13:08:31.642Z,30.2
2017-04-05T13:09:32.744Z,30.2
2017-04-05T13:10:33.157Z,30.2
2017-04-05T13:11:33.236Z,30.3
2017-04-05T13:12:34.057Z,30.4
2017-04-05T13:13:31.983Z,30.5
2017-04-05T13:14:31.946Z,30.5
2017-04-05T13:15:34.232Z,30.5
2017-04-05T13:16:31.844Z,30.5
2017-04-05T13:17:33.664Z,30.5
2017-04-05T13:18:32.324Z,30.5
2017-04-05T13:19:32.621Z,30.5
2017-04-05T13:20:32.116Z,30.5
2017-04-05T13:21:32.218Z,30.5
2017-04-05T13:22:32.389Z,30.5
2017-04-05T13:23:32.367Z,30.6
2017-04-05T13:24:34.740Z,30.6
2017-04-05T13:25:33.751Z,30.5
2017-04-05T13:26:32.576Z,30.6